createdAt,value
2023-01-05T00:01:06.057Z,100558.81
2023-01-05T00:03:33.820Z,100531.94
2023-01-05T00:06:05.071Z,100551.75
2023-01-05T00:08:37.022Z,100543.63
2023-01-05T00:11:40.369Z,100548.78
2023-01-05T00:14:30.295Z,100546.31
2023-01-05T00:17:15.678Z,100550.41
2023-01-05T00:20:00.771Z,100569.41
2023-01-05T00:22:31.538Z,100552.03
2023-01-05T00:25:12.128Z,100561.59
2023-01-05T00:27:43.920Z,100570.28
2023-01-05T00:30:14.138Z,100564.84
2023-01-05T00:32:41.685Z,100559.16
2023-01-05T00:35:09.536Z,100561.84
2023-01-05T00:37:38.406Z,100551.25
2023-01-05T00:40:11.361Z,100561.84
2023-01-05T00:42:38.223Z,100562.38
2023-01-05T00:45:10.730Z,100574.88
2023-01-05T00:47:37.145Z,100562.66
2023-01-05T00:50:04.540Z,100567.81
2023-01-05T00:52:30.976Z,100583.31
2023-01-05T00:54:57.576Z,100574.03
2023-01-05T00:57:24.163Z,100571.59
2023-01-05T00:59:52.813Z,100580.56
2023-01-05T01:02:20.065Z,100579.22
2023-01-05T01:04:46.678Z,100563.19
2023-01-05T01:07:13.120Z,100567.81
2023-01-05T01:09:40.579Z,100583.56
2023-01-05T01:12:08.187Z,100588.72
2023-01-05T01:14:34.908Z,100584.09
2023-01-05T01:17:02.744Z,100582.75
2023-01-05T01:19:29.237Z,100585.72
2023-01-05T01:21:55.738Z,100595.75
2023-01-05T01:24:25.314Z,100593.03
2023-01-05T01:26:52.851Z,100599.59
2023-01-05T01:29:21.080Z,100598.19
2023-01-05T01:31:48.653Z,100600.13
2023-01-05T01:34:15.634Z,100592.22
2023-01-05T01:36:42.605Z,100603.38
2023-01-05T01:39:11.131Z,100607.16
2023-01-05T01:41:40.061Z,100612.91
2023-01-05T01:44:44.741Z,100625.09
2023-01-05T01:47:16.778Z,100607.16
2023-01-05T01:49:43.176Z,100608.53
2023-01-05T01:52:09.723Z,100616.97
2023-01-05T01:54:36.294Z,100616.69
2023-01-05T01:57:04.281Z,100626.97
2023-01-05T01:59:30.978Z,100616.97
2023-01-05T02:02:01.139Z,100615.59
2023-01-05T02:04:32.444Z,100629.44
2023-01-05T02:07:00.927Z,100619.09
2023-01-05T02:09:27.628Z,100629.44
2023-01-05T02:12:06.854Z,100618.56
2023-01-05T02:14:58.730Z,100616.38
2023-01-05T02:17:37.200Z,100621.53
2023-01-05T02:20:31.370Z,100628.56
2023-01-05T02:23:31.850Z,100647.56
2023-01-05T02:26:02.031Z,100630.72
2023-01-05T02:28:53.968Z,100642.66
2023-01-05T02:31:31.305Z,100635.34
2023-01-05T02:34:17.385Z,100626.38
2023-01-05T02:36:53.920Z,100645.94
2023-01-05T02:39:39.602Z,100631.25
2023-01-05T02:42:15.353Z,100629.63
2023-01-05T02:44:44.162Z,100643.19
2023-01-05T02:47:25.958Z,100646.41
2023-01-05T02:49:57.155Z,100643.16
2023-01-05T02:52:24.783Z,100658.88
2023-01-05T02:55:00.834Z,100651.00
2023-01-05T02:57:52.729Z,100648.03
2023-01-05T03:00:34.784Z,100645.06
2023-01-05T03:03:12.211Z,100657.28
2023-01-05T03:05:55.885Z,100658.09
2023-01-05T03:08:30.762Z,100654.03
2023-01-05T03:11:23.402Z,100651.88
2023-01-05T03:14:12.566Z,100652.16
2023-01-05T03:16:39.813Z,100652.69
2023-01-05T03:19:30.342Z,100669.22
2023-01-05T03:22:18.262Z,100667.34
2023-01-05T03:25:04.315Z,100659.75
2023-01-05T03:27:54.309Z,100666.25
2023-01-05T03:30:48.206Z,100664.09
2023-01-05T03:33:40.689Z,100663.28
2023-01-05T03:36:09.176Z,100664.91
2023-01-05T03:38:45.250Z,100661.91
2023-01-05T03:41:15.473Z,100676.56
2023-01-05T03:43:43.044Z,100665.69
2023-01-05T03:46:13.690Z,100666.75
2023-01-05T03:48:40.874Z,100682.50
2023-01-05T03:51:07.774Z,100680.59
2023-01-05T03:53:36.258Z,100690.63
2023-01-05T03:56:03.960Z,100686.00
2023-01-05T03:58:30.402Z,100687.38
2023-01-05T04:00:57.157Z,100680.91
2023-01-05T04:03:29.572Z,100685.47
2023-01-05T04:06:00.304Z,100689.56
2023-01-05T04:08:29.794Z,100693.06
2023-01-05T04:10:57.492Z,100699.28
2023-01-05T04:13:24.979Z,100699.56
2023-01-05T04:15:54.770Z,100703.38
2023-01-05T04:18:21.318Z,100703.38
2023-01-05T04:20:48.147Z,100703.09
2023-01-05T04:23:14.577Z,100704.97
2023-01-05T04:25:41.743Z,100707.69
2023-01-05T04:28:16.116Z,100714.75
2023-01-05T04:30:44.540Z,100722.00
2023-01-05T04:33:11.833Z,100726.88
2023-01-05T04:35:38.728Z,100720.66
2023-01-05T04:38:06.129Z,100728.50
2023-01-05T04:40:33.360Z,100739.03
2023-01-05T04:43:00.582Z,100746.09
2023-01-05T04:45:27.302Z,100726.31
2023-01-05T04:47:54.692Z,100725.16
2023-01-05T04:50:23.529Z,100728.66
2023-01-05T04:52:50.090Z,100734.09
2023-01-05T04:55:19.065Z,100740.00
2023-01-05T04:57:46.237Z,100738.41
2023-01-05T05:00:14.791Z,100744.13
2023-01-05T05:02:43.792Z,100753.34
2023-01-05T05:05:13.252Z,100748.22
2023-01-05T05:07:39.679Z,100736.81
2023-01-05T05:10:08.913Z,100754.69
2023-01-05T05:12:35.613Z,100765.28
2023-01-05T05:15:02.817Z,100750.69
2023-01-05T05:17:30.112Z,100750.44
2023-01-05T05:19:57.246Z,100760.13
2023-01-05T05:22:25.019Z,100766.38
2023-01-05T05:24:51.428Z,100766.06
2023-01-05T05:27:17.855Z,100764.75
2023-01-05T05:29:44.276Z,100761.75
2023-01-05T05:32:10.831Z,100767.75
2023-01-05T05:34:37.237Z,100778.31
2023-01-05T05:37:03.630Z,100777.81
2023-01-05T05:39:30.118Z,100774.78
2023-01-05T05:41:56.544Z,100778.88
2023-01-05T05:44:22.972Z,100785.66
2023-01-05T05:46:49.435Z,100786.69
2023-01-05T05:49:15.885Z,100784.47
2023-01-05T05:51:42.275Z,100799.63
2023-01-05T05:54:08.764Z,100794.50
2023-01-05T05:56:35.170Z,100785.84
2023-01-05T05:59:02.777Z,100792.53
2023-01-05T06:01:30.135Z,100805.09
2023-01-05T06:03:56.775Z,100796.41
2023-01-05T06:06:23.311Z,100806.16
2023-01-05T06:08:49.738Z,100804.25
2023-01-05T06:11:16.136Z,100805.66
2023-01-05T06:13:42.824Z,100806.47
2023-01-05T06:16:09.425Z,100817.28
2023-01-05T06:18:36.116Z,100808.63
2023-01-05T06:21:02.706Z,100822.44
2023-01-05T06:23:29.927Z,100831.56
2023-01-05T06:25:56.312Z,100835.63
2023-01-05T06:28:22.702Z,100835.69
2023-01-05T06:30:49.082Z,100838.03
2023-01-05T06:33:15.517Z,100838.88
2023-01-05T06:35:41.899Z,100841.91
2023-01-05T06:38:08.462Z,100838.31
2023-01-05T06:40:35.444Z,100843.59
2023-01-05T06:43:03.448Z,100855.47
2023-01-05T06:45:30.038Z,100853.38
2023-01-05T06:47:58.930Z,100857.69
2023-01-05T06:50:25.429Z,100871.88
2023-01-05T06:52:51.833Z,100864.50
2023-01-05T06:55:18.313Z,100869.41
2023-01-05T06:57:44.772Z,100879.66
2023-01-05T07:00:12.343Z,100878.91
2023-01-05T07:02:38.890Z,100880.50
2023-01-05T07:05:05.740Z,100894.06
2023-01-05T07:07:32.336Z,100889.47
2023-01-05T07:09:58.758Z,100894.34
2023-01-05T07:12:25.804Z,100894.69
2023-01-05T07:14:57.291Z,100899.56
2023-01-05T07:17:24.361Z,100908.97
2023-01-05T07:19:50.757Z,100916.50
2023-01-05T07:22:17.205Z,100910.56
2023-01-05T07:24:43.731Z,100908.16
2023-01-05T07:27:10.330Z,100926.88
2023-01-05T07:29:36.846Z,100924.47
2023-01-05T07:32:03.836Z,100920.13
2023-01-05T07:34:30.325Z,100932.84
2023-01-05T07:36:57.070Z,100934.75
2023-01-05T07:39:23.810Z,100942.59
2023-01-05T07:41:50.231Z,100948.00
2023-01-05T07:44:18.210Z,100946.66
2023-01-05T07:46:44.702Z,100942.22
2023-01-05T07:49:11.350Z,100951.19
2023-01-05T07:51:37.815Z,100953.00
2023-01-05T07:54:04.329Z,100959.03
2023-01-05T07:56:30.750Z,100963.09
2023-01-05T07:58:57.338Z,100969.56
2023-01-05T08:01:23.840Z,100962.88
2023-01-05T08:03:50.470Z,100972.91
2023-01-05T08:06:19.478Z,100974.44
2023-01-05T08:08:46.356Z,100969.31
2023-01-05T08:11:17.400Z,100976.75
2023-01-05T08:14:00.201Z,100971.28
2023-01-05T08:16:30.941Z,100979.41
2023-01-05T08:18:58.402Z,100990.53
2023-01-05T08:21:25.249Z,100992.19
2023-01-05T08:23:53.199Z,101001.34
2023-01-05T08:26:23.263Z,101004.59
2023-01-05T08:28:50.499Z,100998.28
2023-01-05T08:31:20.846Z,101005.66
2023-01-05T08:33:47.445Z,100998.19
2023-01-05T08:36:17.113Z,101005.09
2023-01-05T08:38:48.177Z,101005.44
2023-01-05T08:41:16.902Z,101008.72
2023-01-05T08:43:43.512Z,101016.28
2023-01-05T08:46:10.691Z,101011.88
2023-01-05T08:48:37.139Z,101022.00
2023-01-05T08:51:06.126Z,101019.81
2023-01-05T08:53:34.516Z,101023.13
2023-01-05T08:56:01.843Z,101020.94
2023-01-05T08:58:28.539Z,101041.28
2023-01-05T09:00:55.129Z,101036.16
2023-01-05T09:03:21.579Z,101041.34
2023-01-05T09:05:48.524Z,101048.72
2023-01-05T09:08:14.923Z,101047.44
2023-01-05T09:10:41.314Z,101055.69
2023-01-05T09:13:07.801Z,101057.28
2023-01-05T09:15:35.081Z,101056.47
2023-01-05T09:18:02.779Z,101062.97
2023-01-05T09:20:33.166Z,101066.06
2023-01-05T09:23:02.867Z,101074.19
2023-01-05T09:25:29.393Z,101080.69
2023-01-05T09:27:56.044Z,101079.38
2023-01-05T09:30:22.597Z,101094.25
2023-01-05T09:32:48.998Z,101087.19
2023-01-05T09:35:15.405Z,101097.38
2023-01-05T09:37:41.971Z,101102.84
2023-01-05T09:40:09.755Z,101097.31
2023-01-05T09:42:43.577Z,101109.72
2023-01-05T09:45:13.482Z,101107.41
2023-01-05T09:47:42.159Z,101116.91
2023-01-05T09:50:19.510Z,101119.13
2023-01-05T09:52:46.353Z,101133.09
2023-01-05T09:55:21.567Z,101132.72
2023-01-05T09:58:06.259Z,101142.75
2023-01-05T10:00:33.747Z,101138.50
2023-01-05T10:03:11.045Z,101138.31
2023-01-05T10:05:44.763Z,101138.50
2023-01-05T10:08:20.099Z,101141.66
2023-01-05T10:11:39.929Z,101150.44
2023-01-05T10:14:14.676Z,101149.69
2023-01-05T10:16:44.120Z,101159.19
2023-01-05T10:19:15.684Z,101162.78
2023-01-05T10:21:47.975Z,101164.88
2023-01-05T10:24:35.251Z,101169.19
2023-01-05T10:27:25.145Z,101168.94
2023-01-05T10:30:13.225Z,101172.50
2023-01-05T10:33:27.760Z,101174.31
2023-01-05T10:36:06.371Z,101175.94
2023-01-05T10:39:10.320Z,101178.88
2023-01-05T10:41:45.956Z,101178.63
2023-01-05T10:44:47.990Z,101189.03
2023-01-05T10:47:15.152Z,101196.41
2023-01-05T10:49:45.353Z,101192.09
2023-01-05T10:52:18.329Z,101193.00
2023-01-05T10:55:00.911Z,101197.59
2023-01-05T10:57:38.104Z,101188.63
2023-01-05T11:00:21.994Z,101198.94
2023-01-05T11:02:57.766Z,101206.06
2023-01-05T11:05:33.550Z,101213.41
2023-01-05T11:08:06.764Z,101216.06
2023-01-05T11:10:39.093Z,101213.41
2023-01-05T11:13:17.751Z,101218.22
2023-01-05T11:15:59.868Z,101214.06
2023-01-05T11:18:33.605Z,101220.69
2023-01-05T11:21:07.671Z,101230.34
2023-01-05T11:23:49.117Z,101226.00
2023-01-05T11:26:18.686Z,101236.41
2023-01-05T11:29:10.895Z,101222.16
2023-01-05T11:31:42.727Z,101223.81
2023-01-05T11:34:17.489Z,101220.59
2023-01-05T11:36:52.509Z,101223.09
2023-01-05T11:39:47.813Z,101219.00
2023-01-05T11:42:23.353Z,101219.00
2023-01-05T11:44:55.494Z,101223.09
2023-01-05T11:47:43.280Z,101242.41
2023-01-05T11:50:13.450Z,101244.44
2023-01-05T11:52:49.890Z,101247.91
2023-01-05T11:55:22.468Z,101243.28
2023-01-05T11:57:54.193Z,101258.25
2023-01-05T12:00:26.883Z,101240.78
2023-01-05T12:03:11.839Z,101252.06
2023-01-05T12:05:50.573Z,101262.63
2023-01-05T12:08:27.701Z,101262.28
2023-01-05T12:11:17.268Z,101267.59
2023-01-05T12:14:21.279Z,101262.94
2023-01-05T12:17:03.074Z,101269.34
2023-01-05T12:20:00.579Z,101265.47
2023-01-05T12:22:57.786Z,101278.78
2023-01-05T12:25:52.990Z,101260.50
2023-01-05T12:28:43.409Z,101266.66
2023-01-05T12:34:18.418Z,101267.88
2023-01-05T12:37:04.479Z,101271.56
2023-01-05T12:40:05.012Z,101269.22
2023-01-05T12:42:50.469Z,101271.16
2023-01-05T12:45:32.294Z,101277.75
2023-01-05T12:48:15.073Z,101285.69
2023-01-05T12:51:08.166Z,101293.97
2023-01-05T12:53:40.563Z,101293.50
2023-01-05T12:56:16.599Z,101291.34
2023-01-05T12:58:56.970Z,101296.94
2023-01-05T13:01:27.838Z,101297.25
2023-01-05T13:04:11.698Z,101296.28
2023-01-05T13:06:42.830Z,101297.75
2023-01-05T13:09:20.157Z,101291.03
2023-01-05T13:11:55.733Z,101293.97
2023-01-05T13:14:28.231Z,101302.69
2023-01-05T13:17:00.832Z,101299.97
2023-01-05T13:19:34.811Z,101301.22
2023-01-05T13:22:10.662Z,101298.09
2023-01-05T13:24:50.513Z,101304.41
2023-01-05T13:27:17.770Z,101327.91
2023-01-05T13:29:48.029Z,101324.19
2023-01-05T13:32:43.862Z,101318.28
2023-01-05T13:35:32.245Z,101332.31
2023-01-05T13:38:28.963Z,101335.75
2023-01-05T13:41:08.436Z,101333.19
2023-01-05T13:44:07.321Z,101338.75
2023-01-05T13:46:47.637Z,101337.22
2023-01-05T13:49:44.183Z,101348.13
2023-01-05T13:52:47.800Z,101349.88
2023-01-05T13:55:25.877Z,101357.91
2023-01-05T13:57:55.534Z,101361.72
2023-01-05T14:00:25.300Z,101361.13
2023-01-05T14:03:20.973Z,101360.09
2023-01-05T14:05:51.876Z,101369.84
2023-01-05T14:08:38.098Z,101366.44
2023-01-05T14:11:15.180Z,101371.84
2023-01-05T14:13:54.679Z,101377.03
2023-01-05T14:16:33.904Z,101383.25
2023-01-05T14:19:20.437Z,101380.47
2023-01-05T14:21:49.571Z,101385.03
2023-01-05T14:24:33.501Z,101385.16
2023-01-05T14:27:24.270Z,101395.66
2023-01-05T14:29:53.656Z,101389.41
2023-01-05T14:32:26.755Z,101401.19
2023-01-05T14:37:55.342Z,101404.81
2023-01-05T14:40:33.643Z,101416.72
2023-01-05T14:43:04.104Z,101420.69
2023-01-05T14:45:33.654Z,101424.22
2023-01-05T14:48:03.472Z,101417.28
2023-01-05T14:50:32.410Z,101420.13
2023-01-05T14:53:03.894Z,101423.44
2023-01-05T14:55:40.195Z,101432.00
2023-01-05T14:58:15.608Z,101436.25
2023-01-05T15:00:52.922Z,101429.41
2023-01-05T15:03:37.267Z,101429.88
2023-01-05T15:06:11.402Z,101423.19
2023-01-05T15:09:05.865Z,101437.53
2023-01-05T15:11:43.477Z,101444.25
2023-01-05T15:14:32.377Z,101439.03
2023-01-05T15:16:58.917Z,101450.44
2023-01-05T15:19:56.648Z,101449.50
2023-01-05T15:22:38.392Z,101451.25
2023-01-05T15:25:34.393Z,101450.44
2023-01-05T15:28:31.909Z,101451.13
2023-01-05T15:31:13.985Z,101449.75
2023-01-05T15:33:46.104Z,101449.75
2023-01-05T15:36:24.893Z,101456.34
2023-01-05T15:38:51.320Z,101450.91
2023-01-05T15:41:20.958Z,101459.25
2023-01-05T15:43:49.038Z,101461.28
2023-01-05T15:46:26.395Z,101453.38
2023-01-05T15:48:54.392Z,101463.16
2023-01-05T15:51:27.759Z,101469.25
2023-01-05T15:53:57.679Z,101457.94
2023-01-05T15:56:51.006Z,101458.53
2023-01-05T15:59:35.112Z,101454.66
2023-01-05T16:02:01.846Z,101464.94
2023-01-05T16:04:28.523Z,101462.69
2023-01-05T16:07:01.978Z,101464.09
2023-01-05T16:09:35.480Z,101462.81
2023-01-05T16:12:11.166Z,101462.69
2023-01-05T16:14:43.242Z,101473.25
2023-01-05T16:17:19.178Z,101463.75
2023-01-05T16:19:49.752Z,101464.31
2023-01-05T16:22:44.517Z,101470.34
2023-01-05T16:25:18.399Z,101477.03
2023-01-05T16:27:49.252Z,101481.03
2023-01-05T16:30:37.813Z,101488.91
2023-01-05T16:33:14.966Z,101492.56
2023-01-05T16:35:55.311Z,101492.09
2023-01-05T16:38:21.713Z,101491.72
2023-01-05T16:40:48.077Z,101495.63
2023-01-05T16:43:23.684Z,101492.81
2023-01-05T16:45:52.217Z,101488.44
2023-01-05T16:48:40.096Z,101492.69
2023-01-05T16:51:09.324Z,101486.09
2023-01-05T16:53:41.928Z,101476.22
2023-01-05T16:56:19.378Z,101480.81
2023-01-05T16:58:46.254Z,101485.97
2023-01-05T17:01:13.358Z,101490.81
2023-01-05T17:03:40.878Z,101487.53
2023-01-05T17:06:19.735Z,101486.22
2023-01-05T17:08:46.162Z,101491.59
2023-01-05T17:11:12.792Z,101490.56
2023-01-05T17:13:46.990Z,101497.66
2023-01-05T17:16:14.084Z,101496.22
2023-01-05T17:18:40.516Z,101491.16
2023-01-05T17:21:08.909Z,101500.00
2023-01-05T17:23:46.604Z,101505.97
2023-01-05T17:26:36.646Z,101501.25
2023-01-05T17:29:05.215Z,101503.41
2023-01-05T17:31:31.618Z,101498.69
2023-01-05T17:33:59.315Z,101499.03
2023-01-05T17:36:32.386Z,101493.16
2023-01-05T17:38:59.858Z,101495.88
2023-01-05T17:41:26.515Z,101502.94
2023-01-05T17:43:53.141Z,101500.91
2023-01-05T17:46:24.534Z,101498.56
2023-01-05T17:48:50.998Z,101501.72
2023-01-05T17:51:18.366Z,101491.97
2023-01-05T17:53:44.993Z,101485.38
2023-01-05T17:56:11.461Z,101485.38
2023-01-05T17:58:38.954Z,101488.56
2023-01-05T18:01:06.450Z,101485.50
2023-01-05T18:03:33.276Z,101484.00
2023-01-05T18:06:01.091Z,101486.09
2023-01-05T18:08:29.661Z,101480.66
2023-01-05T18:10:56.601Z,101480.44
2023-01-05T18:13:24.332Z,101486.19
2023-01-05T18:15:52.356Z,101477.84
2023-01-05T18:18:21.589Z,101482.44
2023-01-05T18:20:51.131Z,101480.78
2023-01-05T18:23:19.321Z,101476.69
2023-01-05T18:25:46.019Z,101469.94
2023-01-05T18:28:12.779Z,101472.91
2023-01-05T18:30:42.848Z,101465.84
2023-01-05T18:33:09.725Z,101466.91
2023-01-05T18:35:43.437Z,101471.50
2023-01-05T18:38:10.205Z,101472.31
2023-01-05T18:40:36.753Z,101469.84
2023-01-05T18:43:03.470Z,101472.78
2023-01-05T18:45:39.299Z,101475.25
2023-01-05T18:48:06.200Z,101479.84
2023-01-05T18:50:32.735Z,101482.91
2023-01-05T18:52:59.331Z,101482.09
2023-01-05T18:55:26.200Z,101485.38
2023-01-05T18:57:52.628Z,101478.69
2023-01-05T19:00:19.142Z,101475.97
2023-01-05T19:02:45.578Z,101471.25
2023-01-05T19:05:12.059Z,101476.69
2023-01-05T19:07:39.704Z,101478.56
2023-01-05T19:10:06.493Z,101468.31
2023-01-05T19:12:33.329Z,101469.34
2023-01-05T19:15:00.083Z,101473.72
2023-01-05T19:17:28.408Z,101471.22
2023-01-05T19:19:57.416Z,101477.81
2023-01-05T19:22:23.848Z,101470.06
2023-01-05T19:24:50.254Z,101472.53
2023-01-05T19:27:16.677Z,101476.81
2023-01-05T19:29:43.190Z,101474.25
2023-01-05T19:32:09.598Z,101475.56
2023-01-05T19:34:36.084Z,101469.78
2023-01-05T19:37:05.497Z,101471.75
2023-01-05T19:39:32.699Z,101470.94
2023-01-05T19:41:59.335Z,101468.59
2023-01-05T19:44:26.333Z,101467.53
2023-01-05T19:46:53.999Z,101461.78
2023-01-05T19:49:22.941Z,101461.50
2023-01-05T19:51:50.098Z,101455.16
2023-01-05T19:54:17.173Z,101466.69
2023-01-05T19:56:44.895Z,101458.06
2023-01-05T19:59:21.463Z,101455.06
2023-01-05T20:01:48.513Z,101453.63
2023-01-05T20:04:15.613Z,101450.91
2023-01-05T20:06:44.371Z,101458.41
2023-01-05T20:09:13.578Z,101451.72
2023-01-05T20:11:45.729Z,101454.69
2023-01-05T20:14:15.437Z,101455.25
2023-01-05T20:16:44.575Z,101455.84
2023-01-05T20:19:11.608Z,101459.41
2023-01-05T20:21:38.406Z,101453.38
2023-01-05T20:24:10.603Z,101455.28
2023-01-05T20:26:37.069Z,101449.78
2023-01-05T20:29:04.364Z,101454.97
2023-01-05T20:31:34.310Z,101452.97
2023-01-05T20:34:04.825Z,101449.44
2023-01-05T20:36:31.556Z,101446.06
2023-01-05T20:38:59.256Z,101454.97
2023-01-05T20:41:35.775Z,101448.03
2023-01-05T20:44:03.606Z,101456.56
2023-01-05T20:46:34.365Z,101454.88
2023-01-05T20:49:01.289Z,101455.22
2023-01-05T20:51:29.095Z,101453.00
2023-01-05T20:53:58.468Z,101443.97
2023-01-05T20:56:33.236Z,101449.03
2023-01-05T20:59:00.363Z,101449.16
2023-01-05T21:01:28.240Z,101449.06
2023-01-05T21:03:54.726Z,101447.63
2023-01-05T21:06:21.578Z,101453.63
2023-01-05T21:08:49.736Z,101452.22
2023-01-05T21:11:18.407Z,101452.00
2023-01-05T21:13:47.242Z,101455.16
2023-01-05T21:16:18.843Z,101457.41
2023-01-05T21:18:46.662Z,101459.66
2023-01-05T21:21:17.797Z,101456.00
2023-01-05T21:23:49.335Z,101457.53
2023-01-05T21:26:17.045Z,101454.09
2023-01-05T21:28:44.618Z,101455.53
2023-01-05T21:31:14.471Z,101447.53
2023-01-05T21:33:41.592Z,101456.09
2023-01-05T21:36:15.573Z,101447.72
2023-01-05T21:39:00.867Z,101449.13
2023-01-05T21:41:50.390Z,101453.59
2023-01-05T21:44:17.670Z,101442.63
2023-01-05T21:46:44.313Z,101434.19
2023-01-05T21:49:11.830Z,101440.44
2023-01-05T21:51:57.416Z,101440.69
2023-01-05T21:54:42.281Z,101428.88
2023-01-05T21:57:08.831Z,101433.94
2023-01-05T21:59:35.643Z,101436.06
2023-01-05T22:02:02.165Z,101430.75
2023-01-05T22:04:28.705Z,101428.41
2023-01-05T22:06:55.165Z,101422.75
2023-01-05T22:09:21.564Z,101417.22
2023-01-05T22:11:48.427Z,101415.66
2023-01-05T22:14:15.231Z,101418.75
2023-01-05T22:16:41.848Z,101415.94
2023-01-05T22:19:08.377Z,101412.50
2023-01-05T22:21:34.820Z,101416.75
2023-01-05T22:24:02.709Z,101408.88
2023-01-05T22:26:29.666Z,101415.19
2023-01-05T22:28:56.203Z,101411.44
2023-01-05T22:31:29.110Z,101412.59
2023-01-05T22:33:58.457Z,101410.72
2023-01-05T22:36:26.855Z,101414.81
2023-01-05T22:38:55.056Z,101405.06
2023-01-05T22:41:25.073Z,101414.81
2023-01-05T22:43:52.381Z,101406.69
2023-01-05T22:46:21.448Z,101403.50
2023-01-05T22:48:49.741Z,101407.13
2023-01-05T22:51:19.015Z,101407.72
2023-01-05T22:53:45.863Z,101397.38
2023-01-05T22:56:13.735Z,101389.59
2023-01-05T22:58:40.913Z,101388.38
2023-01-05T23:01:13.523Z,101383.44
2023-01-05T23:03:41.384Z,101391.56
2023-01-05T23:06:08.661Z,101389.53
2023-01-05T23:08:36.744Z,101385.44
2023-01-05T23:11:10.125Z,101378.44
2023-01-05T23:13:36.981Z,101381.63
2023-01-05T23:16:05.174Z,101373.28
2023-01-05T23:18:32.268Z,101364.25
2023-01-05T23:21:01.218Z,101372.47
2023-01-05T23:23:30.311Z,101374.00
2023-01-05T23:25:57.389Z,101365.88
2023-01-05T23:28:25.158Z,101366.94
2023-01-05T23:30:53.641Z,101366.19
2023-01-05T23:33:23.291Z,101358.91
2023-01-05T23:35:53.922Z,101352.50
2023-01-05T23:38:21.372Z,101354.31
2023-01-05T23:40:50.385Z,101349.63
2023-01-05T23:43:20.687Z,101344.38
2023-01-05T23:45:48.023Z,101338.72
2023-01-05T23:48:15.487Z,101338.16
2023-01-05T23:50:43.819Z,101331.91
2023-01-05T23:53:11.313Z,101330.34
2023-01-05T23:55:38.998Z,101324.19
2023-01-05T23:58:05.698Z,101328.81
